sensor_id;sensor_type;location;lat;lon;timestamp;pressure;altitude;pressure_sealevel;temperature;humidity
48968;BME280;46511;53.148;8.204;2024-03-02T00:00:26;100280.69;;;9.93;100.00
48968;BME280;46511;53.148;8.204;2024-03-02T00:02:58;100284.88;;;9.69;100.00
48968;BME280;46511;53.148;8.204;2024-03-02T00:05:29;100281.09;;;9.87;100.00
48968;BME280;46511;53.148;8.204;2024-03-02T00:08:00;100280.69;;;9.79;100.00
48968;BME280;46511;53.148;8.204;2024-03-02T00:10:36;100278.03;;;9.65;100.00
48968;BME280;46511;53.148;8.204;2024-03-02T00:13:11;100279.66;;;9.67;100.00
48968;BME280;46511;53.148;8.204;2024-03-02T00:15:48;100277.47;;;9.74;100.00
48968;BME280;46511;53.148;8.204;2024-03-02T00:18:32;100270.81;;;9.53;100.00
48968;BME280;46511;53.148;8.204;2024-03-02T00:21:00;100267.03;;;9.57;100.00
48968;BME280;46511;53.148;8.204;2024-03-02T00:23:33;100270.25;;;9.62;100.00
48968;BME280;46511;53.148;8.204;2024-03-02T00:26:06;100265.41;;;9.40;100.00
48968;BME280;46511;53.148;8.204;2024-03-02T00:28:37;100277.72;;;9.41;100.00
48968;BME280;46511;53.148;8.204;2024-03-02T00:31:13;100266.25;;;9.40;100.00
48968;BME280;46511;53.148;8.204;2024-03-02T00:33:45;100259.16;;;9.41;100.00
48968;BME280;46511;53.148;8.204;2024-03-02T00:36:22;100258.72;;;9.77;100.00
48968;BME280;46511;53.148;8.204;2024-03-02T00:38:55;100255.88;;;9.52;100.00
48968;BME280;46511;53.148;8.204;2024-03-02T00:41:28;100256.34;;;9.58;100.00
48968;BME280;46511;53.148;8.204;2024-03-02T00:44:02;100251.13;;;9.57;100.00
48968;BME280;46511;53.148;8.204;2024-03-02T00:46:36;100258.22;;;9.56;100.00
48968;BME280;46511;53.148;8.204;2024-03-02T00:49:17;100259.38;;;9.52;100.00
48968;BME280;46511;53.148;8.204;2024-03-02T00:51:52;100264.75;;;9.51;100.00
48968;BME280;46511;53.148;8.204;2024-03-02T00:54:25;100261.13;;;9.37;100.00
48968;BME280;46511;53.148;8.204;2024-03-02T00:56:57;100254.66;;;9.27;100.00
48968;BME280;46511;53.148;8.204;2024-03-02T00:59:30;100245.91;;;9.41;100.00
48968;BME280;46511;53.148;8.204;2024-03-02T01:02:02;100247.22;;;9.20;100.00
48968;BME280;46511;53.148;8.204;2024-03-02T01:04:34;100246.50;;;9.16;100.00
48968;BME280;46511;53.148;8.204;2024-03-02T01:07:05;100241.59;;;9.10;100.00
48968;BME280;46511;53.148;8.204;2024-03-02T01:09:36;100250.41;;;9.25;100.00
48968;BME280;46511;53.148;8.204;2024-03-02T01:12:08;100248.06;;;9.20;100.00
48968;BME280;46511;53.148;8.204;2024-03-02T01:14:40;100251.88;;;9.00;100.00
48968;BME280;46511;53.148;8.204;2024-03-02T01:17:11;100246.50;;;9.16;100.00
48968;BME280;46511;53.148;8.204;2024-03-02T01:19:42;100245.84;;;9.12;100.00
48968;BME280;46511;53.148;8.204;2024-03-02T01:22:14;100250.25;;;8.98;100.00
48968;BME280;46511;53.148;8.204;2024-03-02T01:24:45;100244.00;;;8.99;100.00
48968;BME280;46511;53.148;8.204;2024-03-02T01:27:12;100234.19;;;9.01;100.00
48968;BME280;46511;53.148;8.204;2024-03-02T01:29:43;100245.63;;;9.01;100.00
48968;BME280;46511;53.148;8.204;2024-03-02T01:32:14;100235.47;;;8.94;100.00
48968;BME280;46511;53.148;8.204;2024-03-02T01:34:46;100237.72;;;8.85;100.00
48968;BME280;46511;53.148;8.204;2024-03-02T01:37:13;100233.19;;;8.87;100.00
48968;BME280;46511;53.148;8.204;2024-03-02T01:39:44;100238.53;;;9.02;100.00
48968;BME280;46511;53.148;8.204;2024-03-02T01:42:15;100224.72;;;8.81;100.00
48968;BME280;46511;53.148;8.204;2024-03-02T01:44:47;100227.44;;;8.95;100.00
48968;BME280;46511;53.148;8.204;2024-03-02T01:47:18;100227.38;;;8.81;100.00
48968;BME280;46511;53.148;8.204;2024-03-02T01:49:50;100219.53;;;8.79;100.00
48968;BME280;46511;53.148;8.204;2024-03-02T01:52:21;100217.03;;;8.92;100.00
48968;BME280;46511;53.148;8.204;2024-03-02T01:54:53;100214.66;;;8.87;100.00
48968;BME280;46511;53.148;8.204;2024-03-02T01:57:24;100212.94;;;8.86;100.00
48968;BME280;46511;53.148;8.204;2024-03-02T01:59:56;100218.63;;;8.65;100.00
48968;BME280;46511;53.148;8.204;2024-03-02T02:02:22;100209.88;;;8.78;100.00
48968;BME280;46511;53.148;8.204;2024-03-02T02:04:57;100212.84;;;8.58;100.00
48968;BME280;46511;53.148;8.204;2024-03-02T02:07:23;100206.88;;;8.84;100.00
48968;BME280;46511;53.148;8.204;2024-03-02T02:09:49;100208.00;;;8.80;100.00
48968;BME280;46511;53.148;8.204;2024-03-02T02:12:21;100205.75;;;8.88;100.00
48968;BME280;46511;53.148;8.204;2024-03-02T02:14:52;100209.72;;;8.81;100.00
48968;BME280;46511;53.148;8.204;2024-03-02T02:17:23;100199.81;;;8.69;100.00
48968;BME280;46511;53.148;8.204;2024-03-02T02:19:55;100199.47;;;8.75;100.00
48968;BME280;46511;53.148;8.204;2024-03-02T02:22:26;100193.97;;;8.48;100.00
48968;BME280;46511;53.148;8.204;2024-03-02T02:24:57;100193.88;;;8.66;100.00
48968;BME280;46511;53.148;8.204;2024-03-02T02:27:29;100177.88;;;8.67;100.00
48968;BME280;46511;53.148;8.204;2024-03-02T02:30:01;100173.03;;;8.59;100.00
48968;BME280;46511;53.148;8.204;2024-03-02T02:32:34;100174.72;;;8.61;100.00
48968;BME280;46511;53.148;8.204;2024-03-02T02:35:05;100170.03;;;8.66;100.00
48968;BME280;46511;53.148;8.204;2024-03-02T02:37:37;100169.22;;;8.79;100.00
48968;BME280;46511;53.148;8.204;2024-03-02T02:40:09;100177.38;;;8.61;100.00
48968;BME280;46511;53.148;8.204;2024-03-02T02:42:41;100172.59;;;8.67;100.00
48968;BME280;46511;53.148;8.204;2024-03-02T02:45:13;100169.63;;;8.57;100.00
48968;BME280;46511;53.148;8.204;2024-03-02T02:47:45;100156.47;;;8.56;100.00
48968;BME280;46511;53.148;8.204;2024-03-02T02:50:16;100150.88;;;8.46;100.00
48968;BME280;46511;53.148;8.204;2024-03-02T02:52:50;100155.47;;;8.43;100.00
48968;BME280;46511;53.148;8.204;2024-03-02T02:55:21;100155.31;;;8.46;100.00
48968;BME280;46511;53.148;8.204;2024-03-02T02:57:53;100156.50;;;8.40;100.00
48968;BME280;46511;53.148;8.204;2024-03-02T03:00:24;100157.69;;;8.50;100.00
48968;BME280;46511;53.148;8.204;2024-03-02T03:02:55;100158.28;;;8.55;100.00
48968;BME280;46511;53.148;8.204;2024-03-02T03:05:27;100150.94;;;8.29;100.00
48968;BME280;46511;53.148;8.204;2024-03-02T03:07:58;100152.75;;;8.44;100.00
48968;BME280;46511;53.148;8.204;2024-03-02T03:10:30;100151.47;;;8.20;100.00
48968;BME280;46511;53.148;8.204;2024-03-02T03:13:02;100142.16;;;8.28;100.00
48968;BME280;46511;53.148;8.204;2024-03-02T03:15:37;100141.66;;;8.38;100.00
48968;BME280;46511;53.148;8.204;2024-03-02T03:18:08;100129.50;;;8.34;100.00
48968;BME280;46511;53.148;8.204;2024-03-02T03:20:41;100123.19;;;8.52;100.00
48968;BME280;46511;53.148;8.204;2024-03-02T03:23:12;100126.09;;;8.47;100.00
48968;BME280;46511;53.148;8.204;2024-03-02T03:25:48;100124.59;;;8.27;100.00
48968;BME280;46511;53.148;8.204;2024-03-02T03:28:19;100121.06;;;8.43;100.00
48968;BME280;46511;53.148;8.204;2024-03-02T03:30:50;100131.28;;;8.35;100.00
48968;BME280;46511;53.148;8.204;2024-03-02T03:33:22;100115.78;;;8.43;100.00
48968;BME280;46511;53.148;8.204;2024-03-02T03:35:48;100122.59;;;8.47;100.00
48968;BME280;46511;53.148;8.204;2024-03-02T03:38:19;100136.19;;;8.41;100.00
48968;BME280;46511;53.148;8.204;2024-03-02T03:40:51;100143.56;;;8.36;100.00
48968;BME280;46511;53.148;8.204;2024-03-02T03:43:22;100140.63;;;8.40;100.00
48968;BME280;46511;53.148;8.204;2024-03-02T03:45:53;100145.91;;;8.56;100.00
48968;BME280;46511;53.148;8.204;2024-03-02T03:48:25;100134.91;;;8.62;100.00
48968;BME280;46511;53.148;8.204;2024-03-02T03:51:01;100138.38;;;8.32;100.00
48968;BME280;46511;53.148;8.204;2024-03-02T03:53:32;100140.66;;;8.24;100.00
48968;BME280;46511;53.148;8.204;2024-03-02T03:56:04;100137.81;;;8.27;100.00
48968;BME280;46511;53.148;8.204;2024-03-02T03:58:36;100144.88;;;8.43;100.00
48968;BME280;46511;53.148;8.204;2024-03-02T04:01:07;100143.56;;;8.36;100.00
48968;BME280;46511;53.148;8.204;2024-03-02T04:03:39;100151.72;;;8.31;100.00
48968;BME280;46511;53.148;8.204;2024-03-02T04:06:10;100156.25;;;8.29;100.00
48968;BME280;46511;53.148;8.204;2024-03-02T04:08:41;100144.13;;;8.41;100.00
48968;BME280;46511;53.148;8.204;2024-03-02T04:11:13;100154.41;;;8.15;100.00
48968;BME280;46511;53.148;8.204;2024-03-02T04:13:44;100151.03;;;8.43;100.00
48968;BME280;46511;53.148;8.204;2024-03-02T04:16:15;100151.41;;;8.37;100.00
48968;BME280;46511;53.148;8.204;2024-03-02T04:18:47;100158.22;;;8.25;100.00
48968;BME280;46511;53.148;8.204;2024-03-02T04:21:18;100152.25;;;8.38;100.00
48968;BME280;46511;53.148;8.204;2024-03-02T04:23:49;100156.66;;;8.53;100.00
48968;BME280;46511;53.148;8.204;2024-03-02T04:26:21;100156.28;;;8.59;100.00
48968;BME280;46511;53.148;8.204;2024-03-02T04:28:53;100162.50;;;8.44;100.00
48968;BME280;46511;53.148;8.204;2024-03-02T04:31:24;100166.31;;;8.22;100.00
48968;BME280;46511;53.148;8.204;2024-03-02T04:33:56;100173.63;;;8.35;100.00
48968;BME280;46511;53.148;8.204;2024-03-02T04:36:27;100172.41;;;8.24;100.00
48968;BME280;46511;53.148;8.204;2024-03-02T04:38:58;100169.28;;;8.32;100.00
48968;BME280;46511;53.148;8.204;2024-03-02T04:41:30;100172.78;;;8.32;100.00
48968;BME280;46511;53.148;8.204;2024-03-02T04:44:01;100171.84;;;8.34;100.00
48968;BME280;46511;53.148;8.204;2024-03-02T04:46:27;100171.19;;;8.46;100.00
48968;BME280;46511;53.148;8.204;2024-03-02T04:48:59;100182.09;;;8.24;100.00
48968;BME280;46511;53.148;8.204;2024-03-02T04:51:26;100175.72;;;8.44;100.00
48968;BME280;46511;53.148;8.204;2024-03-02T04:53:57;100184.31;;;8.31;100.00
48968;BME280;46511;53.148;8.204;2024-03-02T04:56:28;100177.22;;;8.32;100.00
48968;BME280;46511;53.148;8.204;2024-03-02T04:59:02;100179.22;;;8.44;100.00
48968;BME280;46511;53.148;8.204;2024-03-02T05:01:34;100178.50;;;8.56;100.00
48968;BME280;46511;53.148;8.204;2024-03-02T05:04:05;100182.44;;;8.65;100.00
48968;BME280;46511;53.148;8.204;2024-03-02T05:06:37;100177.59;;;8.42;100.00
48968;BME280;46511;53.148;8.204;2024-03-02T05:09:11;100181.41;;;8.52;100.00
48968;BME280;46511;53.148;8.204;2024-03-02T05:11:42;100181.28;;;8.39;100.00
48968;BME280;46511;53.148;8.204;2024-03-02T05:14:16;100176.84;;;8.40;100.00
48968;BME280;46511;53.148;8.204;2024-03-02T05:16:47;100177.31;;;8.30;100.00
48968;BME280;46511;53.148;8.204;2024-03-02T05:19:19;100188.97;;;8.44;100.00
48968;BME280;46511;53.148;8.204;2024-03-02T05:21:50;100198.00;;;8.40;100.00
48968;BME280;46511;53.148;8.204;2024-03-02T05:24:22;100187.22;;;8.43;100.00
48968;BME280;46511;53.148;8.204;2024-03-02T05:26:54;100188.28;;;8.24;100.00
48968;BME280;46511;53.148;8.204;2024-03-02T05:29:25;100194.81;;;8.33;100.00
48968;BME280;46511;53.148;8.204;2024-03-02T05:31:57;100187.72;;;8.34;100.00
48968;BME280;46511;53.148;8.204;2024-03-02T05:34:28;100184.31;;;8.31;100.00
48968;BME280;46511;53.148;8.204;2024-03-02T05:37:00;100191.50;;;8.29;100.00
48968;BME280;46511;53.148;8.204;2024-03-02T05:39:32;100193.47;;;8.42;100.00
48968;BME280;46511;53.148;8.204;2024-03-02T05:42:03;100195.25;;;7.94;100.00
48968;BME280;46511;53.148;8.204;2024-03-02T05:44:38;100195.09;;;7.97;100.00
48968;BME280;46511;53.148;8.204;2024-03-02T05:47:09;100189.88;;;8.11;100.00
48968;BME280;46511;53.148;8.204;2024-03-02T05:49:41;100185.72;;;8.07;100.00
48968;BME280;46511;53.148;8.204;2024-03-02T05:52:12;100184.59;;;8.11;100.00
48968;BME280;46511;53.148;8.204;2024-03-02T05:54:44;100192.00;;;8.05;100.00
48968;BME280;46511;53.148;8.204;2024-03-02T05:57:15;100192.84;;;8.05;100.00
48968;BME280;46511;53.148;8.204;2024-03-02T05:59:48;100196.28;;;8.23;100.00
48968;BME280;46511;53.148;8.204;2024-03-02T06:02:19;100199.00;;;8.21;100.00
48968;BME280;46511;53.148;8.204;2024-03-02T06:04:50;100195.78;;;8.00;100.00
48968;BME280;46511;53.148;8.204;2024-03-02T06:07:21;100195.50;;;8.05;100.00
48968;BME280;46511;53.148;8.204;2024-03-02T06:09:53;100207.22;;;8.01;100.00
48968;BME280;46511;53.148;8.204;2024-03-02T06:12:24;100208.84;;;8.19;100.00
48968;BME280;46511;53.148;8.204;2024-03-02T06:14:55;100198.25;;;8.03;100.00
48968;BME280;46511;53.148;8.204;2024-03-02T06:17:27;100205.00;;;8.25;100.00
48968;BME280;46511;53.148;8.204;2024-03-02T06:19:58;100212.19;;;8.39;100.00
48968;BME280;46511;53.148;8.204;2024-03-02T06:22:29;100210.81;;;8.47;100.00
48968;BME280;46511;53.148;8.204;2024-03-02T06:25:01;100216.09;;;8.63;100.00
48968;BME280;46511;53.148;8.204;2024-03-02T06:27:32;100216.78;;;8.51;100.00
48968;BME280;46511;53.148;8.204;2024-03-02T06:30:04;100216.78;;;8.51;100.00
48968;BME280;46511;53.148;8.204;2024-03-02T06:32:35;100221.72;;;8.57;100.00
48968;BME280;46511;53.148;8.204;2024-03-02T06:35:07;100224.09;;;8.62;100.00
48968;BME280;46511;53.148;8.204;2024-03-02T06:37:41;100226.50;;;8.50;100.00
48968;BME280;46511;53.148;8.204;2024-03-02T06:40:12;100231.38;;;8.58;100.00
48968;BME280;46511;53.148;8.204;2024-03-02T06:42:43;100230.75;;;8.69;100.00
48968;BME280;46511;53.148;8.204;2024-03-02T06:45:14;100241.72;;;8.93;100.00
48968;BME280;46511;53.148;8.204;2024-03-02T06:47:46;100246.91;;;9.10;100.00
48968;BME280;46511;53.148;8.204;2024-03-02T06:50:17;100246.16;;;9.22;100.00
48968;BME280;46511;53.148;8.204;2024-03-02T06:52:48;100244.31;;;9.08;100.00
48968;BME280;46511;53.148;8.204;2024-03-02T06:55:20;100256.78;;;8.92;100.00
48968;BME280;46511;53.148;8.204;2024-03-02T06:57:52;100255.75;;;9.09;100.00
48968;BME280;46511;53.148;8.204;2024-03-02T07:00:23;100254.22;;;9.21;100.00
48968;BME280;46511;53.148;8.204;2024-03-02T07:02:55;100262.50;;;9.14;100.00
48968;BME280;46511;53.148;8.204;2024-03-02T07:05:22;100256.34;;;9.14;100.00
48968;BME280;46511;53.148;8.204;2024-03-02T07:07:53;100256.13;;;9.47;100.00
48968;BME280;46511;53.148;8.204;2024-03-02T07:10:24;100256.25;;;9.88;100.00
48968;BME280;46511;53.148;8.204;2024-03-02T07:12:56;100257.19;;;9.73;100.00
48968;BME280;46511;53.148;8.204;2024-03-02T07:15:27;100252.66;;;9.89;100.00
48968;BME280;46511;53.148;8.204;2024-03-02T07:18:19;100256.22;;;10.02;100.00
48968;BME280;46511;53.148;8.204;2024-03-02T07:20:50;100258.22;;;9.85;100.00
48968;BME280;46511;53.148;8.204;2024-03-02T07:23:21;100260.88;;;9.85;100.00
48968;BME280;46511;53.148;8.204;2024-03-02T07:25:55;100258.06;;;9.59;100.00
48968;BME280;46511;53.148;8.204;2024-03-02T07:28:27;100256.44;;;9.71;100.00
48968;BME280;46511;53.148;8.204;2024-03-02T07:30:59;100257.84;;;10.61;100.00
48968;BME280;46511;53.148;8.204;2024-03-02T07:33:32;100258.28;;;10.40;100.00
48968;BME280;46511;53.148;8.204;2024-03-02T07:36:03;100261.72;;;10.42;100.00
48968;BME280;46511;53.148;8.204;2024-03-02T07:38:35;100259.84;;;10.71;100.00
48968;BME280;46511;53.148;8.204;2024-03-02T07:41:07;100258.09;;;11.50;100.00
48968;BME280;46511;53.148;8.204;2024-03-02T07:43:39;100255.69;;;12.58;100.00
48968;BME280;46511;53.148;8.204;2024-03-02T07:46:10;100256.13;;;13.24;100.00
48968;BME280;46511;53.148;8.204;2024-03-02T07:48:42;100267.75;;;13.80;98.75
48968;BME280;46511;53.148;8.204;2024-03-02T07:51:13;100273.06;;;14.58;89.19
48968;BME280;46511;53.148;8.204;2024-03-02T07:53:45;100276.75;;;14.46;86.78
48968;BME280;46511;53.148;8.204;2024-03-02T07:56:11;100282.63;;;14.83;84.01
48968;BME280;46511;53.148;8.204;2024-03-02T07:58:42;100278.72;;;16.03;75.80
48968;BME280;46511;53.148;8.204;2024-03-02T08:01:16;100278.28;;;15.77;75.67
48968;BME280;46511;53.148;8.204;2024-03-02T08:03:48;100278.47;;;16.56;70.18
48968;BME280;46511;53.148;8.204;2024-03-02T08:06:21;100284.69;;;16.66;68.65
48968;BME280;46511;53.148;8.204;2024-03-02T08:08:56;100275.16;;;16.93;65.65
48968;BME280;46511;53.148;8.204;2024-03-02T08:11:23;100276.56;;;17.55;63.86
48968;BME280;46511;53.148;8.204;2024-03-02T08:13:55;100285.56;;;18.30;62.54
48968;BME280;46511;53.148;8.204;2024-03-02T08:16:26;100285.28;;;18.23;60.41
48968;BME280;46511;53.148;8.204;2024-03-02T08:18:58;100291.47;;;18.88;57.64
48968;BME280;46511;53.148;8.204;2024-03-02T08:21:31;100292.25;;;18.16;58.99
48968;BME280;46511;53.148;8.204;2024-03-02T08:24:06;100300.47;;;17.38;61.34
48968;BME280;46511;53.148;8.204;2024-03-02T08:26:38;100297.31;;;18.19;59.74
48968;BME280;46511;53.148;8.204;2024-03-02T08:29:09;100294.31;;;19.04;57.19
48968;BME280;46511;53.148;8.204;2024-03-02T08:31:40;100300.63;;;18.77;56.40
48968;BME280;46511;53.148;8.204;2024-03-02T08:34:12;100292.75;;;20.33;52.21
48968;BME280;46511;53.148;8.204;2024-03-02T08:36:43;100302.13;;;20.55;51.32
48968;BME280;46511;53.148;8.204;2024-03-02T08:39:15;100295.06;;;21.70;48.49
48968;BME280;46511;53.148;8.204;2024-03-02T08:41:46;100287.66;;;21.31;48.35
48968;BME280;46511;53.148;8.204;2024-03-02T08:44:18;100294.03;;;20.55;48.59
48968;BME280;46511;53.148;8.204;2024-03-02T08:46:50;100303.91;;;20.80;48.79
48968;BME280;46511;53.148;8.204;2024-03-02T08:49:21;100294.19;;;23.42;44.07
48968;BME280;46511;53.148;8.204;2024-03-02T08:51:53;100300.56;;;23.03;44.07
48968;BME280;46511;53.148;8.204;2024-03-02T08:54:27;100296.63;;;23.75;41.24
48968;BME280;46511;53.148;8.204;2024-03-02T08:56:59;100308.06;;;21.99;43.83
48968;BME280;46511;53.148;8.204;2024-03-02T08:59:30;100308.75;;;21.84;44.04
48968;BME280;46511;53.148;8.204;2024-03-02T09:02:02;100313.88;;;23.59;41.41
48968;BME280;46511;53.148;8.204;2024-03-02T09:04:33;100315.34;;;23.70;41.33
48968;BME280;46511;53.148;8.204;2024-03-02T09:07:05;100311.69;;;22.38;42.09
48968;BME280;46511;53.148;8.204;2024-03-02T09:09:36;100313.88;;;22.74;42.29
48968;BME280;46511;53.148;8.204;2024-03-02T09:12:09;100321.69;;;23.08;40.73
48968;BME280;46511;53.148;8.204;2024-03-02T09:14:42;100326.19;;;20.82;44.58
48968;BME280;46511;53.148;8.204;2024-03-02T09:17:13;100323.22;;;20.25;46.09
48968;BME280;46511;53.148;8.204;2024-03-02T09:19:44;100329.78;;;19.97;47.36
48968;BME280;46511;53.148;8.204;2024-03-02T09:22:16;100327.31;;;19.78;47.64
48968;BME280;46511;53.148;8.204;2024-03-02T09:24:47;100321.44;;;20.68;46.07
48968;BME280;46511;53.148;8.204;2024-03-02T09:27:18;100328.19;;;19.43;47.31
48968;BME280;46511;53.148;8.204;2024-03-02T09:29:50;100331.56;;;19.27;48.98
48968;BME280;46511;53.148;8.204;2024-03-02T09:32:21;100313.88;;;23.13;43.15
48968;BME280;46511;53.148;8.204;2024-03-02T09:34:52;100319.22;;;24.19;40.24
48968;BME280;46511;53.148;8.204;2024-03-02T09:37:24;100317.09;;;24.74;38.27
48968;BME280;46511;53.148;8.204;2024-03-02T09:39:55;100329.63;;;22.31;41.42
48968;BME280;46511;53.148;8.204;2024-03-02T09:42:27;100331.25;;;22.57;40.84
48968;BME280;46511;53.148;8.204;2024-03-02T09:44:59;100331.91;;;22.59;42.44
48968;BME280;46511;53.148;8.204;2024-03-02T09:47:30;100330.28;;;23.12;41.08
48968;BME280;46511;53.148;8.204;2024-03-02T09:50:05;100324.25;;;22.15;42.15
48968;BME280;46511;53.148;8.204;2024-03-02T09:52:36;100322.56;;;23.92;40.02
48968;BME280;46511;53.148;8.204;2024-03-02T09:55:09;100315.09;;;24.83;38.09
48968;BME280;46511;53.148;8.204;2024-03-02T09:57:40;100314.59;;;26.01;36.54
48968;BME280;46511;53.148;8.204;2024-03-02T10:00:13;100313.13;;;27.35;34.36
48968;BME280;46511;53.148;8.204;2024-03-02T10:02:45;100311.59;;;26.24;34.51
48968;BME280;46511;53.148;8.204;2024-03-02T10:05:26;100309.63;;;26.87;33.14
48968;BME280;46511;53.148;8.204;2024-03-02T10:08:01;100303.84;;;26.62;32.98
48968;BME280;46511;53.148;8.204;2024-03-02T10:10:34;100308.09;;;27.32;32.97
48968;BME280;46511;53.148;8.204;2024-03-02T10:13:13;100309.63;;;26.11;33.89
48968;BME280;46511;53.148;8.204;2024-03-02T10:15:45;100304.13;;;27.54;31.48
48968;BME280;46511;53.148;8.204;2024-03-02T10:18:18;100308.09;;;26.71;32.87
48968;BME280;46511;53.148;8.204;2024-03-02T10:21:04;100307.97;;;25.18;34.29
48968;BME280;46511;53.148;8.204;2024-03-02T10:23:39;100310.84;;;27.58;32.27
48968;BME280;46511;53.148;8.204;2024-03-02T10:26:17;100312.25;;;24.55;35.02
48968;BME280;46511;53.148;8.204;2024-03-02T10:28:52;100311.03;;;26.69;32.60
48968;BME280;46511;53.148;8.204;2024-03-02T10:31:30;100301.94;;;27.03;31.60
48968;BME280;46511;53.148;8.204;2024-03-02T10:34:01;100307.50;;;24.04;35.23
48968;BME280;46511;53.148;8.204;2024-03-02T10:36:33;100319.16;;;24.42;35.13
48968;BME280;46511;53.148;8.204;2024-03-02T10:39:08;100312.84;;;24.12;35.81
48968;BME280;46511;53.148;8.204;2024-03-02T10:41:40;100309.41;;;26.06;32.95
48968;BME280;46511;53.148;8.204;2024-03-02T10:44:12;100308.03;;;25.46;34.07
48968;BME280;46511;53.148;8.204;2024-03-02T10:46:45;100306.56;;;28.49;30.92
48968;BME280;46511;53.148;8.204;2024-03-02T10:49:18;100304.69;;;27.03;31.40
48968;BME280;46511;53.148;8.204;2024-03-02T10:51:51;100304.09;;;26.26;32.52
48968;BME280;46511;53.148;8.204;2024-03-02T10:54:22;100310.66;;;25.11;34.36
48968;BME280;46511;53.148;8.204;2024-03-02T10:56:58;100303.50;;;26.78;32.54
48968;BME280;46511;53.148;8.204;2024-03-02T10:59:34;100300.97;;;26.70;31.88
48968;BME280;46511;53.148;8.204;2024-03-02T11:02:07;100296.38;;;26.77;31.58
48968;BME280;46511;53.148;8.204;2024-03-02T11:04:43;100292.28;;;28.47;30.37
48968;BME280;46511;53.148;8.204;2024-03-02T11:07:17;100278.91;;;28.77;29.48
48968;BME280;46511;53.148;8.204;2024-03-02T11:10:01;100283.56;;;27.92;29.79
48968;BME280;46511;53.148;8.204;2024-03-02T11:12:48;100279.97;;;27.65;30.90
48968;BME280;46511;53.148;8.204;2024-03-02T11:15:27;100277.47;;;28.74;29.38
48968;BME280;46511;53.148;8.204;2024-03-02T11:17:58;100304.66;;;29.39;28.22
48968;BME280;46511;53.148;8.204;2024-03-02T11:20:25;100302.56;;;26.51;31.10
48968;BME280;46511;53.148;8.204;2024-03-02T11:22:57;100302.75;;;25.01;32.98
48968;BME280;46511;53.148;8.204;2024-03-02T11:25:36;100311.66;;;24.30;33.78
48968;BME280;46511;53.148;8.204;2024-03-02T11:28:07;100312.06;;;23.28;35.15
48968;BME280;46511;53.148;8.204;2024-03-02T11:33:13;100300.09;;;27.17;31.46
48968;BME280;46511;53.148;8.204;2024-03-02T11:35:46;100299.50;;;28.14;30.03
48968;BME280;46511;53.148;8.204;2024-03-02T11:38:18;100296.56;;;28.81;29.10
48968;BME280;46511;53.148;8.204;2024-03-02T11:40:50;100298.19;;;26.22;31.57
48968;BME280;46511;53.148;8.204;2024-03-02T11:43:21;100298.13;;;26.43;31.85
48968;BME280;46511;53.148;8.204;2024-03-02T11:46:00;100306.06;;;24.46;33.23
48968;BME280;46511;53.148;8.204;2024-03-02T11:48:35;100302.69;;;26.84;31.75
48968;BME280;46511;53.148;8.204;2024-03-02T11:51:08;100299.91;;;27.45;30.91
48968;BME280;46511;53.148;8.204;2024-03-02T11:53:40;100304.56;;;27.71;30.33
48968;BME280;46511;53.148;8.204;2024-03-02T11:56:13;100291.97;;;28.74;29.36
48968;BME280;46511;53.148;8.204;2024-03-02T11:58:45;100293.88;;;26.00;31.96
48968;BME280;46511;53.148;8.204;2024-03-02T12:01:16;100298.13;;;26.43;32.39
48968;BME280;46511;53.148;8.204;2024-03-02T12:03:48;100293.16;;;28.14;29.20
48968;BME280;46511;53.148;8.204;2024-03-02T12:06:19;100295.38;;;24.30;34.34
48968;BME280;46511;53.148;8.204;2024-03-02T12:08:52;100300.66;;;24.82;34.10
48968;BME280;46511;53.148;8.204;2024-03-02T12:11:24;100294.56;;;25.80;33.08
48968;BME280;46511;53.148;8.204;2024-03-02T12:13:56;100289.88;;;29.15;29.55
48968;BME280;46511;53.148;8.204;2024-03-02T12:16:29;100292.59;;;27.59;30.31
48968;BME280;46511;53.148;8.204;2024-03-02T12:19:00;100291.69;;;25.88;32.19
48968;BME280;46511;53.148;8.204;2024-03-02T12:21:31;100283.03;;;26.13;31.91
48968;BME280;46511;53.148;8.204;2024-03-02T12:24:03;100287.75;;;26.67;31.96
48968;BME280;46511;53.148;8.204;2024-03-02T12:26:34;100289.09;;;26.97;31.81
48968;BME280;46511;53.148;8.204;2024-03-02T12:29:06;100288.13;;;27.12;30.82
48968;BME280;46511;53.148;8.204;2024-03-02T12:31:37;100287.97;;;25.47;32.51
48968;BME280;46511;53.148;8.204;2024-03-02T12:34:10;100286.75;;;26.05;32.34
48968;BME280;46511;53.148;8.204;2024-03-02T12:36:45;100293.13;;;25.63;32.87
48968;BME280;46511;53.148;8.204;2024-03-02T12:39:20;100285.66;;;27.30;31.01
48968;BME280;46511;53.148;8.204;2024-03-02T12:41:53;100289.84;;;25.96;31.85
48968;BME280;46511;53.148;8.204;2024-03-02T12:44:25;100291.94;;;25.94;31.98
48968;BME280;46511;53.148;8.204;2024-03-02T12:46:56;100298.97;;;25.60;32.75
48968;BME280;46511;53.148;8.204;2024-03-02T12:49:27;100290.13;;;24.13;34.26
48968;BME280;46511;53.148;8.204;2024-03-02T12:52:01;100291.56;;;24.39;34.05
48968;BME280;46511;53.148;8.204;2024-03-02T12:54:33;100291.09;;;23.68;35.00
48968;BME280;46511;53.148;8.204;2024-03-02T12:57:05;100281.19;;;25.15;33.52
48968;BME280;46511;53.148;8.204;2024-03-02T12:59:36;100268.25;;;24.81;33.73
48968;BME280;46511;53.148;8.204;2024-03-02T13:02:08;100273.09;;;23.90;34.43
48968;BME280;46511;53.148;8.204;2024-03-02T13:04:54;100269.28;;;24.79;33.95
48968;BME280;46511;53.148;8.204;2024-03-02T13:07:26;100270.59;;;25.69;32.62
48968;BME280;46511;53.148;8.204;2024-03-02T13:09:58;100270.19;;;23.91;34.50
48968;BME280;46511;53.148;8.204;2024-03-02T13:12:30;100264.97;;;25.99;33.14
48968;BME280;46511;53.148;8.204;2024-03-02T13:14:57;100264.31;;;26.31;31.90
48968;BME280;46511;53.148;8.204;2024-03-02T13:17:30;100266.44;;;24.88;33.48